Date,TemperatureHighF,TemperatureAvgF,TemperatureLowF,DewpointHighF,DewpointAvgF,DewpointLowF,HumidityHigh,HumidityAvg,HumidityLow,PressureMaxIn,PressureMinIn,WindSpeedMaxMPH,WindSpeedAvgMPH,GustSpeedMaxMPH,PrecipitationSumIn
2013-1-1,32,14,2,20,3,-8,89,61,43,30.05,29.90,7,2,8,0.00
2013-1-2,34,19,6,12,5,-2,70,55,40,30.23,29.96,9,3,12,0.00
2013-1-3,42,17,-1,16,0,-10,67,49,26,30.23,29.99,7,2,8,0.00
2013-1-4,46,22,5,16,3,-11,69,45,30,30.11,29.90,6,2,7,0.04
2013-1-5,43,22,8,18,6,-4,71,52,34,30.20,29.93,14,4,15,0.00
2013-1-6,44,22,2,18,5,-8,78,52,28,30.17,29.84,7,2,8,0.00
2013-1-7,54,34,20,23,14,7,71,46,25,29.90,29.78,12,3,13,0.00
2013-1-8,50,42,23,21,17,12,69,38,30,30.14,29.70,33,8,36,0.00
2013-1-9,56,34,19,25,17,11,76,54,28,30.14,29.96,9,3,10,0.00
2013-1-10,42,26,14,23,16,8,81,65,40,29.96,29.43,12,2,13,0.00
2013-1-11,40,23,4,25,13,2,95,71,31,29.78,29.25,27,6,29,0.00
2013-1-12,17,8,-4,14,5,-5,93,89,79,29.99,29.72,11,3,12,0.00
2013-1-13,14,4,-8,10,-4,-18,84,68,51,30.08,29.84,7,2,8,0.00
2013-1-14,15,4,-9,1,-10,-22,55,51,48,30.08,29.87,7,2,8,0.00
2013-1-15,31,13,-12,16,-1,-25,68,52,43,30.05,29.87,8,2,9,0.00
2013-1-16,56,33,15,29,17,8,77,55,30,30.29,29.96,9,3,10,0.00
2013-1-17,52,30,13,25,16,8,84,60,28,30.29,30.11,9,3,12,0.00
2013-1-18,58,40,17,22,12,6,77,40,14,30.17,29.93,28,7,31,0.00
2013-1-19,62,47,29,19,9,0,42,22,14,30.14,29.99,27,6,30,0.00
2013-1-20,51,31,18,21,11,6,65,45,28,30.23,29.99,16,4,18,0.00
2013-1-21,58,35,10,23,11,1,81,43,16,30.14,29.93,25,6,27,0.00
2013-1-22,62,43,24,22,11,2,52,30,13,30.11,29.90,22,5,28,0.00
2013-1-23,65,47,26,14,8,1,45,24,10,30.11,29.99,25,6,29,0.00
2013-1-24,65,44,24,26,17,9,57,36,14,30.11,29.84,39,8,42,0.00
2013-1-25,54,38,26,29,22,17,77,55,36,30.05,29.93,9,3,12,0.00
2013-1-26,53,39,25,35,26,18,84,62,38,29.99,29.70,9,2,10,0.00
2013-1-27,60,41,29,40,28,16,97,64,35,29.72,29.64,14,3,15,0.00
2013-1-28,50,32,22,30,23,14,96,71,41,29.70,29.52,16,4,18,0.00
2013-1-29,34,24,10,28,14,0,96,70,41,29.84,29.61,19,3,21,0.08
2013-1-30,42,25,4,19,8,-6,83,51,38,29.84,29.70,22,4,26,0.00
2013-1-31,48,35,23,23,19,11,82,54,30,30.02,29.75,31,7,35,0.00